sensor_id;sensor_type;location;lat;lon;timestamp;P1;durP1;ratioP1;P2;durP2;ratioP2
870;SDS011;422;51.280;7.236;2023-03-01T00:01:38;17.00;;;13.33;;
870;SDS011;422;51.280;7.236;2023-03-01T00:04:06;16.40;;;12.13;;
870;SDS011;422;51.280;7.236;2023-03-01T00:06:33;18.27;;;13.43;;
870;SDS011;422;51.280;7.236;2023-03-01T00:09:01;16.67;;;13.07;;
870;SDS011;422;51.280;7.236;2023-03-01T00:11:29;18.23;;;12.40;;
870;SDS011;422;51.280;7.236;2023-03-01T00:13:59;16.67;;;13.07;;
870;SDS011;422;51.280;7.236;2023-03-01T00:16:30;13.90;;;11.07;;
870;SDS011;422;51.280;7.236;2023-03-01T00:18:59;17.10;;;13.67;;
870;SDS011;422;51.280;7.236;2023-03-01T00:21:26;18.27;;;12.67;;
870;SDS011;422;51.280;7.236;2023-03-01T00:23:54;18.77;;;13.30;;
870;SDS011;422;51.280;7.236;2023-03-01T00:26:23;16.67;;;12.80;;
870;SDS011;422;51.280;7.236;2023-03-01T00:28:52;15.67;;;12.17;;
870;SDS011;422;51.280;7.236;2023-03-01T00:31:22;17.20;;;13.77;;
870;SDS011;422;51.280;7.236;2023-03-01T00:33:52;13.67;;;11.30;;
870;SDS011;422;51.280;7.236;2023-03-01T00:36:22;19.13;;;12.97;;
870;SDS011;422;51.280;7.236;2023-03-01T00:38:51;19.30;;;12.33;;
870;SDS011;422;51.280;7.236;2023-03-01T00:41:18;16.40;;;12.47;;
870;SDS011;422;51.280;7.236;2023-03-01T00:43:49;15.70;;;12.67;;
870;SDS011;422;51.280;7.236;2023-03-01T00:46:18;18.03;;;12.87;;
870;SDS011;422;51.280;7.236;2023-03-01T00:48:47;16.30;;;11.40;;
870;SDS011;422;51.280;7.236;2023-03-01T00:51:15;16.20;;;12.07;;
870;SDS011;422;51.280;7.236;2023-03-01T00:53:44;18.00;;;12.27;;
870;SDS011;422;51.280;7.236;2023-03-01T00:56:12;17.40;;;11.40;;
870;SDS011;422;51.280;7.236;2023-03-01T00:58:40;15.50;;;12.33;;
870;SDS011;422;51.280;7.236;2023-03-01T01:01:09;15.90;;;13.17;;
870;SDS011;422;51.280;7.236;2023-03-01T01:03:44;14.80;;;11.97;;
870;SDS011;422;51.280;7.236;2023-03-01T01:06:16;16.97;;;13.33;;
870;SDS011;422;51.280;7.236;2023-03-01T01:08:44;16.43;;;12.70;;
870;SDS011;422;51.280;7.236;2023-03-01T01:11:11;16.67;;;13.23;;
870;SDS011;422;51.280;7.236;2023-03-01T01:13:39;15.03;;;13.43;;
870;SDS011;422;51.280;7.236;2023-03-01T01:16:07;14.80;;;12.33;;
870;SDS011;422;51.280;7.236;2023-03-01T01:18:36;16.90;;;13.30;;
870;SDS011;422;51.280;7.236;2023-03-01T01:21:04;17.70;;;13.33;;
870;SDS011;422;51.280;7.236;2023-03-01T01:23:32;17.43;;;12.97;;
870;SDS011;422;51.280;7.236;2023-03-01T01:26:03;14.70;;;11.17;;
870;SDS011;422;51.280;7.236;2023-03-01T01:28:31;14.93;;;12.27;;
870;SDS011;422;51.280;7.236;2023-03-01T01:30:58;15.30;;;12.27;;
870;SDS011;422;51.280;7.236;2023-03-01T01:33:25;18.07;;;13.23;;
870;SDS011;422;51.280;7.236;2023-03-01T01:35:54;16.60;;;13.17;;
870;SDS011;422;51.280;7.236;2023-03-01T01:38:22;15.57;;;12.20;;
870;SDS011;422;51.280;7.236;2023-03-01T01:40:49;15.50;;;12.50;;
870;SDS011;422;51.280;7.236;2023-03-01T01:43:21;17.13;;;11.53;;
870;SDS011;422;51.280;7.236;2023-03-01T01:45:50;18.10;;;12.87;;
870;SDS011;422;51.280;7.236;2023-03-01T01:48:20;17.30;;;13.37;;
870;SDS011;422;51.280;7.236;2023-03-01T01:50:51;19.23;;;13.33;;
870;SDS011;422;51.280;7.236;2023-03-01T01:53:23;18.60;;;12.70;;
870;SDS011;422;51.280;7.236;2023-03-01T01:55:51;17.80;;;12.97;;
870;SDS011;422;51.280;7.236;2023-03-01T01:58:22;16.87;;;13.00;;
870;SDS011;422;51.280;7.236;2023-03-01T02:00:52;15.07;;;12.13;;
870;SDS011;422;51.280;7.236;2023-03-01T02:03:20;16.00;;;11.90;;
870;SDS011;422;51.280;7.236;2023-03-01T02:05:57;16.47;;;11.63;;
870;SDS011;422;51.280;7.236;2023-03-01T02:08:32;18.00;;;11.40;;
870;SDS011;422;51.280;7.236;2023-03-01T02:11:01;15.00;;;11.50;;
870;SDS011;422;51.280;7.236;2023-03-01T02:13:30;16.47;;;12.60;;
870;SDS011;422;51.280;7.236;2023-03-01T02:15:57;16.30;;;12.50;;
870;SDS011;422;51.280;7.236;2023-03-01T02:18:25;23.10;;;13.90;;
870;SDS011;422;51.280;7.236;2023-03-01T02:21:00;18.17;;;12.53;;
870;SDS011;422;51.280;7.236;2023-03-01T02:23:37;19.30;;;14.03;;
870;SDS011;422;51.280;7.236;2023-03-01T02:26:07;17.53;;;13.00;;
870;SDS011;422;51.280;7.236;2023-03-01T02:28:40;17.73;;;12.80;;
870;SDS011;422;51.280;7.236;2023-03-01T02:31:11;13.53;;;11.77;;
870;SDS011;422;51.280;7.236;2023-03-01T02:34:01;17.73;;;12.87;;
870;SDS011;422;51.280;7.236;2023-03-01T02:36:30;17.57;;;14.60;;
870;SDS011;422;51.280;7.236;2023-03-01T02:39:02;20.60;;;17.30;;
870;SDS011;422;51.280;7.236;2023-03-01T02:41:33;23.63;;;17.40;;
870;SDS011;422;51.280;7.236;2023-03-01T02:44:04;21.80;;;16.90;;
870;SDS011;422;51.280;7.236;2023-03-01T02:46:33;20.83;;;16.50;;
870;SDS011;422;51.280;7.236;2023-03-01T02:49:15;20.83;;;14.70;;
870;SDS011;422;51.280;7.236;2023-03-01T02:51:47;17.23;;;15.43;;
870;SDS011;422;51.280;7.236;2023-03-01T02:54:24;21.57;;;16.80;;
870;SDS011;422;51.280;7.236;2023-03-01T02:56:55;20.37;;;16.00;;
870;SDS011;422;51.280;7.236;2023-03-01T02:59:25;19.03;;;16.20;;
870;SDS011;422;51.280;7.236;2023-03-01T03:01:55;18.53;;;15.90;;
870;SDS011;422;51.280;7.236;2023-03-01T03:04:22;23.00;;;16.80;;
870;SDS011;422;51.280;7.236;2023-03-01T03:06:50;21.17;;;15.60;;
870;SDS011;422;51.280;7.236;2023-03-01T03:09:17;20.90;;;14.97;;
870;SDS011;422;51.280;7.236;2023-03-01T03:11:45;18.00;;;14.60;;
870;SDS011;422;51.280;7.236;2023-03-01T03:14:13;18.10;;;14.67;;
870;SDS011;422;51.280;7.236;2023-03-01T03:16:45;17.77;;;14.50;;
870;SDS011;422;51.280;7.236;2023-03-01T03:19:13;18.87;;;15.00;;
870;SDS011;422;51.280;7.236;2023-03-01T03:21:41;17.70;;;14.53;;
870;SDS011;422;51.280;7.236;2023-03-01T03:24:08;21.10;;;14.13;;
870;SDS011;422;51.280;7.236;2023-03-01T03:26:37;17.00;;;13.73;;
870;SDS011;422;51.280;7.236;2023-03-01T03:29:04;15.90;;;13.17;;
870;SDS011;422;51.280;7.236;2023-03-01T03:31:31;18.40;;;13.13;;
870;SDS011;422;51.280;7.236;2023-03-01T03:34:00;20.60;;;13.07;;
870;SDS011;422;51.280;7.236;2023-03-01T03:36:28;17.20;;;13.90;;
870;SDS011;422;51.280;7.236;2023-03-01T03:38:55;16.53;;;12.83;;
870;SDS011;422;51.280;7.236;2023-03-01T03:41:22;18.13;;;14.53;;
870;SDS011;422;51.280;7.236;2023-03-01T03:43:50;17.53;;;13.50;;
870;SDS011;422;51.280;7.236;2023-03-01T03:46:17;16.57;;;13.27;;
870;SDS011;422;51.280;7.236;2023-03-01T03:48:44;19.10;;;13.67;;
870;SDS011;422;51.280;7.236;2023-03-01T03:51:15;19.67;;;12.97;;
870;SDS011;422;51.280;7.236;2023-03-01T03:53:43;18.10;;;13.73;;
870;SDS011;422;51.280;7.236;2023-03-01T03:56:11;21.07;;;14.97;;
870;SDS011;422;51.280;7.236;2023-03-01T03:58:38;20.10;;;13.67;;
870;SDS011;422;51.280;7.236;2023-03-01T04:01:05;19.00;;;14.40;;
870;SDS011;422;51.280;7.236;2023-03-01T04:03:33;17.27;;;14.40;;
870;SDS011;422;51.280;7.236;2023-03-01T04:06:00;21.97;;;15.93;;
870;SDS011;422;51.280;7.236;2023-03-01T04:08:30;21.67;;;14.70;;
870;SDS011;422;51.280;7.236;2023-03-01T04:10:58;26.77;;;15.97;;
870;SDS011;422;51.280;7.236;2023-03-01T04:13:47;18.63;;;15.30;;
870;SDS011;422;51.280;7.236;2023-03-01T04:16:15;18.20;;;15.57;;
870;SDS011;422;51.280;7.236;2023-03-01T04:18:42;22.00;;;16.07;;
870;SDS011;422;51.280;7.236;2023-03-01T04:21:10;23.60;;;15.57;;
870;SDS011;422;51.280;7.236;2023-03-01T04:23:39;20.80;;;16.70;;
870;SDS011;422;51.280;7.236;2023-03-01T04:26:06;28.47;;;19.10;;
870;SDS011;422;51.280;7.236;2023-03-01T04:28:34;23.40;;;18.67;;
870;SDS011;422;51.280;7.236;2023-03-01T04:31:03;23.80;;;18.93;;
870;SDS011;422;51.280;7.236;2023-03-01T04:33:38;25.17;;;17.20;;
870;SDS011;422;51.280;7.236;2023-03-01T04:36:06;24.07;;;17.10;;
870;SDS011;422;51.280;7.236;2023-03-01T04:38:35;23.07;;;16.83;;
870;SDS011;422;51.280;7.236;2023-03-01T04:41:07;21.50;;;15.47;;
870;SDS011;422;51.280;7.236;2023-03-01T04:43:35;26.50;;;16.67;;
870;SDS011;422;51.280;7.236;2023-03-01T04:46:03;23.97;;;16.77;;
870;SDS011;422;51.280;7.236;2023-03-01T04:48:34;21.93;;;15.40;;
870;SDS011;422;51.280;7.236;2023-03-01T04:51:02;19.83;;;15.40;;
870;SDS011;422;51.280;7.236;2023-03-01T04:53:30;20.57;;;15.67;;
870;SDS011;422;51.280;7.236;2023-03-01T04:55:58;19.97;;;14.90;;
870;SDS011;422;51.280;7.236;2023-03-01T04:58:27;25.47;;;16.20;;
870;SDS011;422;51.280;7.236;2023-03-01T05:00:54;18.10;;;13.90;;
870;SDS011;422;51.280;7.236;2023-03-01T05:03:22;18.77;;;14.37;;
870;SDS011;422;51.280;7.236;2023-03-01T05:05:50;18.80;;;14.30;;
870;SDS011;422;51.280;7.236;2023-03-01T05:08:19;19.10;;;15.03;;
870;SDS011;422;51.280;7.236;2023-03-01T05:10:48;22.07;;;15.37;;
870;SDS011;422;51.280;7.236;2023-03-01T05:13:16;21.80;;;17.00;;
870;SDS011;422;51.280;7.236;2023-03-01T05:15:49;20.83;;;16.13;;
870;SDS011;422;51.280;7.236;2023-03-01T05:18:21;22.03;;;17.20;;
870;SDS011;422;51.280;7.236;2023-03-01T05:20:51;24.20;;;17.67;;
870;SDS011;422;51.280;7.236;2023-03-01T05:23:18;26.20;;;18.33;;
870;SDS011;422;51.280;7.236;2023-03-01T05:25:45;21.80;;;18.70;;
870;SDS011;422;51.280;7.236;2023-03-01T05:28:15;23.83;;;19.77;;
870;SDS011;422;51.280;7.236;2023-03-01T05:30:42;24.17;;;18.10;;
870;SDS011;422;51.280;7.236;2023-03-01T05:33:11;21.47;;;18.03;;
870;SDS011;422;51.280;7.236;2023-03-01T05:35:40;22.93;;;16.30;;
870;SDS011;422;51.280;7.236;2023-03-01T05:38:07;24.17;;;17.60;;
870;SDS011;422;51.280;7.236;2023-03-01T05:40:38;19.83;;;15.60;;
870;SDS011;422;51.280;7.236;2023-03-01T05:43:06;24.77;;;14.83;;
870;SDS011;422;51.280;7.236;2023-03-01T05:45:35;22.27;;;14.70;;
870;SDS011;422;51.280;7.236;2023-03-01T05:48:06;20.50;;;15.20;;
870;SDS011;422;51.280;7.236;2023-03-01T05:50:37;19.90;;;15.00;;
870;SDS011;422;51.280;7.236;2023-03-01T05:53:06;19.97;;;15.70;;
870;SDS011;422;51.280;7.236;2023-03-01T05:55:36;18.40;;;15.27;;
870;SDS011;422;51.280;7.236;2023-03-01T05:58:04;23.13;;;15.83;;
870;SDS011;422;51.280;7.236;2023-03-01T06:00:33;18.60;;;14.90;;
870;SDS011;422;51.280;7.236;2023-03-01T06:03:01;17.53;;;13.30;;
870;SDS011;422;51.280;7.236;2023-03-01T06:05:29;18.90;;;14.17;;
870;SDS011;422;51.280;7.236;2023-03-01T06:07:59;17.50;;;13.10;;
870;SDS011;422;51.280;7.236;2023-03-01T06:10:28;20.10;;;13.53;;
870;SDS011;422;51.280;7.236;2023-03-01T06:12:56;17.00;;;13.53;;
870;SDS011;422;51.280;7.236;2023-03-01T06:15:24;19.33;;;12.90;;
870;SDS011;422;51.280;7.236;2023-03-01T06:17:53;18.77;;;13.60;;
870;SDS011;422;51.280;7.236;2023-03-01T06:20:24;24.83;;;15.30;;
870;SDS011;422;51.280;7.236;2023-03-01T06:22:52;20.13;;;14.33;;
870;SDS011;422;51.280;7.236;2023-03-01T06:25:22;21.80;;;14.90;;
870;SDS011;422;51.280;7.236;2023-03-01T06:27:50;20.90;;;14.67;;
870;SDS011;422;51.280;7.236;2023-03-01T06:30:18;28.27;;;14.83;;
870;SDS011;422;51.280;7.236;2023-03-01T06:32:49;23.83;;;14.93;;
870;SDS011;422;51.280;7.236;2023-03-01T06:35:17;18.87;;;14.33;;
870;SDS011;422;51.280;7.236;2023-03-01T06:37:45;18.73;;;13.20;;
870;SDS011;422;51.280;7.236;2023-03-01T06:40:13;25.07;;;15.20;;
870;SDS011;422;51.280;7.236;2023-03-01T06:42:43;22.53;;;14.53;;
870;SDS011;422;51.280;7.236;2023-03-01T06:45:15;18.70;;;14.30;;
870;SDS011;422;51.280;7.236;2023-03-01T06:47:46;23.97;;;16.37;;
870;SDS011;422;51.280;7.236;2023-03-01T06:50:14;18.90;;;14.67;;
870;SDS011;422;51.280;7.236;2023-03-01T06:52:42;21.63;;;14.20;;
870;SDS011;422;51.280;7.236;2023-03-01T06:55:09;19.20;;;13.20;;
870;SDS011;422;51.280;7.236;2023-03-01T06:57:37;19.37;;;14.30;;
870;SDS011;422;51.280;7.236;2023-03-01T07:00:06;18.53;;;13.47;;
870;SDS011;422;51.280;7.236;2023-03-01T07:02:34;18.47;;;13.23;;
870;SDS011;422;51.280;7.236;2023-03-01T07:05:01;21.07;;;14.10;;
870;SDS011;422;51.280;7.236;2023-03-01T07:07:29;21.20;;;14.50;;
870;SDS011;422;51.280;7.236;2023-03-01T07:09:56;20.93;;;14.10;;
870;SDS011;422;51.280;7.236;2023-03-01T07:12:24;18.80;;;12.47;;
870;SDS011;422;51.280;7.236;2023-03-01T07:14:51;25.80;;;14.37;;
870;SDS011;422;51.280;7.236;2023-03-01T07:17:20;16.77;;;12.50;;
870;SDS011;422;51.280;7.236;2023-03-01T07:19:47;19.73;;;13.57;;
870;SDS011;422;51.280;7.236;2023-03-01T07:22:14;20.13;;;14.33;;
870;SDS011;422;51.280;7.236;2023-03-01T07:24:42;22.17;;;15.70;;
870;SDS011;422;51.280;7.236;2023-03-01T07:27:09;19.83;;;14.70;;
870;SDS011;422;51.280;7.236;2023-03-01T07:29:37;21.03;;;14.37;;
870;SDS011;422;51.280;7.236;2023-03-01T07:32:04;21.73;;;14.43;;
870;SDS011;422;51.280;7.236;2023-03-01T07:34:33;23.70;;;15.20;;
870;SDS011;422;51.280;7.236;2023-03-01T07:37:01;20.50;;;14.83;;
870;SDS011;422;51.280;7.236;2023-03-01T07:39:28;18.80;;;13.37;;
870;SDS011;422;51.280;7.236;2023-03-01T07:41:55;23.50;;;13.70;;
870;SDS011;422;51.280;7.236;2023-03-01T07:44:22;19.87;;;14.53;;
870;SDS011;422;51.280;7.236;2023-03-01T07:46:50;19.87;;;14.33;;
870;SDS011;422;51.280;7.236;2023-03-01T07:49:21;17.73;;;12.80;;
870;SDS011;422;51.280;7.236;2023-03-01T07:51:49;18.60;;;13.00;;
870;SDS011;422;51.280;7.236;2023-03-01T07:54:17;15.53;;;12.63;;
870;SDS011;422;51.280;7.236;2023-03-01T07:56:44;15.57;;;12.93;;
870;SDS011;422;51.280;7.236;2023-03-01T07:59:11;17.20;;;13.30;;
870;SDS011;422;51.280;7.236;2023-03-01T08:01:38;22.33;;;13.33;;
870;SDS011;422;51.280;7.236;2023-03-01T08:04:07;19.07;;;12.17;;
870;SDS011;422;51.280;7.236;2023-03-01T08:06:34;18.50;;;13.60;;
870;SDS011;422;51.280;7.236;2023-03-01T08:09:03;17.23;;;13.20;;
870;SDS011;422;51.280;7.236;2023-03-01T08:11:31;18.03;;;12.90;;
870;SDS011;422;51.280;7.236;2023-03-01T08:13:58;18.57;;;13.83;;
870;SDS011;422;51.280;7.236;2023-03-01T08:16:25;15.93;;;12.13;;
870;SDS011;422;51.280;7.236;2023-03-01T08:18:52;16.13;;;12.47;;
870;SDS011;422;51.280;7.236;2023-03-01T08:21:21;17.27;;;12.97;;
870;SDS011;422;51.280;7.236;2023-03-01T08:23:49;15.70;;;12.57;;
870;SDS011;422;51.280;7.236;2023-03-01T08:26:18;15.27;;;13.10;;
870;SDS011;422;51.280;7.236;2023-03-01T08:28:46;16.90;;;13.40;;
870;SDS011;422;51.280;7.236;2023-03-01T08:31:16;17.30;;;13.37;;
870;SDS011;422;51.280;7.236;2023-03-01T08:33:45;14.70;;;11.77;;
870;SDS011;422;51.280;7.236;2023-03-01T08:36:16;18.57;;;11.53;;
870;SDS011;422;51.280;7.236;2023-03-01T08:38:46;15.50;;;12.77;;
870;SDS011;422;51.280;7.236;2023-03-01T08:41:13;16.70;;;14.03;;
870;SDS011;422;51.280;7.236;2023-03-01T08:43:42;19.57;;;14.23;;
870;SDS011;422;51.280;7.236;2023-03-01T08:46:09;16.70;;;13.27;;
870;SDS011;422;51.280;7.236;2023-03-01T08:48:36;13.87;;;12.33;;
870;SDS011;422;51.280;7.236;2023-03-01T08:51:07;13.70;;;11.77;;
870;SDS011;422;51.280;7.236;2023-03-01T08:53:34;15.17;;;12.03;;
870;SDS011;422;51.280;7.236;2023-03-01T08:56:01;16.77;;;13.00;;
870;SDS011;422;51.280;7.236;2023-03-01T08:58:29;14.00;;;11.93;;
870;SDS011;422;51.280;7.236;2023-03-01T09:00:58;16.47;;;13.50;;
870;SDS011;422;51.280;7.236;2023-03-01T09:03:25;13.13;;;11.00;;
870;SDS011;422;51.280;7.236;2023-03-01T09:05:53;15.50;;;13.03;;
870;SDS011;422;51.280;7.236;2023-03-01T09:08:26;16.90;;;11.63;;
870;SDS011;422;51.280;7.236;2023-03-01T09:10:54;16.73;;;11.07;;
870;SDS011;422;51.280;7.236;2023-03-01T09:13:21;14.13;;;11.23;;
870;SDS011;422;51.280;7.236;2023-03-01T09:15:50;13.87;;;10.60;;
870;SDS011;422;51.280;7.236;2023-03-01T09:18:19;15.97;;;11.30;;
870;SDS011;422;51.280;7.236;2023-03-01T09:20:46;12.67;;;10.93;;
870;SDS011;422;51.280;7.236;2023-03-01T09:23:13;12.93;;;11.40;;
870;SDS011;422;51.280;7.236;2023-03-01T09:25:40;12.83;;;11.00;;
870;SDS011;422;51.280;7.236;2023-03-01T09:28:07;15.40;;;11.57;;
870;SDS011;422;51.280;7.236;2023-03-01T09:30:36;16.60;;;11.73;;
870;SDS011;422;51.280;7.236;2023-03-01T09:33:03;13.77;;;11.40;;
870;SDS011;422;51.280;7.236;2023-03-01T09:35:31;14.90;;;11.50;;
870;SDS011;422;51.280;7.236;2023-03-01T09:37:58;16.33;;;11.70;;
870;SDS011;422;51.280;7.236;2023-03-01T09:40:26;15.30;;;11.63;;
870;SDS011;422;51.280;7.236;2023-03-01T09:42:55;12.90;;;10.60;;
870;SDS011;422;51.280;7.236;2023-03-01T09:45:27;12.50;;;11.10;;
870;SDS011;422;51.280;7.236;2023-03-01T09:47:59;15.00;;;12.13;;
870;SDS011;422;51.280;7.236;2023-03-01T09:50:30;16.33;;;11.23;;
870;SDS011;422;51.280;7.236;2023-03-01T09:53:02;14.90;;;11.70;;
870;SDS011;422;51.280;7.236;2023-03-01T09:55:33;13.77;;;11.67;;
870;SDS011;422;51.280;7.236;2023-03-01T09:58:08;12.53;;;11.23;;
870;SDS011;422;51.280;7.236;2023-03-01T10:01:02;13.50;;;11.60;;
870;SDS011;422;51.280;7.236;2023-03-01T10:03:39;13.97;;;10.80;;
870;SDS011;422;51.280;7.236;2023-03-01T10:06:12;13.17;;;11.83;;
870;SDS011;422;51.280;7.236;2023-03-01T10:08:41;16.10;;;11.40;;
870;SDS011;422;51.280;7.236;2023-03-01T10:11:17;14.87;;;11.07;;
870;SDS011;422;51.280;7.236;2023-03-01T10:13:48;14.00;;;10.70;;
870;SDS011;422;51.280;7.236;2023-03-01T10:16:21;13.13;;;11.70;;
870;SDS011;422;51.280;7.236;2023-03-01T10:18:53;12.10;;;10.47;;
870;SDS011;422;51.280;7.236;2023-03-01T10:21:27;18.43;;;12.73;;
870;SDS011;422;51.280;7.236;2023-03-01T10:23:56;13.80;;;11.07;;
870;SDS011;422;51.280;7.236;2023-03-01T10:26:38;12.17;;;10.80;;
870;SDS011;422;51.280;7.236;2023-03-01T10:29:13;12.50;;;10.30;;
870;SDS011;422;51.280;7.236;2023-03-01T10:31:41;13.33;;;11.30;;
870;SDS011;422;51.280;7.236;2023-03-01T10:34:12;11.50;;;10.40;;
870;SDS011;422;51.280;7.236;2023-03-01T10:36:44;12.50;;;10.90;;
870;SDS011;422;51.280;7.236;2023-03-01T10:39:15;12.27;;;10.97;;
870;SDS011;422;51.280;7.236;2023-03-01T10:41:59;12.07;;;10.77;;
870;SDS011;422;51.280;7.236;2023-03-01T10:44:35;13.63;;;11.10;;
870;SDS011;422;51.280;7.236;2023-03-01T10:47:04;12.20;;;11.00;;
870;SDS011;422;51.280;7.236;2023-03-01T10:49:37;11.23;;;9.93;;
870;SDS011;422;51.280;7.236;2023-03-01T10:52:16;12.10;;;10.70;;
870;SDS011;422;51.280;7.236;2023-03-01T10:54:50;9.70;;;8.70;;
870;SDS011;422;51.280;7.236;2023-03-01T10:57:29;13.33;;;10.97;;
870;SDS011;422;51.280;7.236;2023-03-01T11:00:13;13.90;;;11.20;;
870;SDS011;422;51.280;7.236;2023-03-01T11:02:47;12.20;;;10.27;;
870;SDS011;422;51.280;7.236;2023-03-01T11:05:17;12.40;;;10.30;;
870;SDS011;422;51.280;7.236;2023-03-01T11:07:52;12.50;;;10.40;;
870;SDS011;422;51.280;7.236;2023-03-01T11:10:22;12.53;;;9.70;;
870;SDS011;422;51.280;7.236;2023-03-01T11:12:50;10.97;;;9.87;;
870;SDS011;422;51.280;7.236;2023-03-01T11:15:24;10.87;;;9.77;;
870;SDS011;422;51.280;7.236;2023-03-01T11:17:52;10.57;;;9.50;;
870;SDS011;422;51.280;7.236;2023-03-01T11:20:24;11.07;;;9.83;;
870;SDS011;422;51.280;7.236;2023-03-01T11:22:55;11.87;;;9.93;;
870;SDS011;422;51.280;7.236;2023-03-01T11:25:25;10.73;;;9.23;;
870;SDS011;422;51.280;7.236;2023-03-01T11:27:55;11.70;;;10.47;;
870;SDS011;422;51.280;7.236;2023-03-01T11:30:25;10.90;;;9.80;;
870;SDS011;422;51.280;7.236;2023-03-01T11:32:59;10.97;;;8.90;;
870;SDS011;422;51.280;7.236;2023-03-01T11:35:35;10.53;;;9.43;;
870;SDS011;422;51.280;7.236;2023-03-01T11:38:12;12.97;;;9.20;;
870;SDS011;422;51.280;7.236;2023-03-01T11:40:46;13.50;;;10.63;;
870;SDS011;422;51.280;7.236;2023-03-01T11:43:20;12.23;;;9.90;;
870;SDS011;422;51.280;7.236;2023-03-01T11:46:21;11.50;;;10.00;;
870;SDS011;422;51.280;7.236;2023-03-01T11:49:00;10.47;;;9.07;;
870;SDS011;422;51.280;7.236;2023-03-01T11:51:37;11.00;;;9.27;;
870;SDS011;422;51.280;7.236;2023-03-01T11:54:16;10.53;;;9.50;;
870;SDS011;422;51.280;7.236;2023-03-01T11:56:53;11.83;;;9.60;;
870;SDS011;422;51.280;7.236;2023-03-01T12:05:24;12.47;;;10.23;;
870;SDS011;422;51.280;7.236;2023-03-01T12:08:29;10.10;;;8.70;;
870;SDS011;422;51.280;7.236;2023-03-01T12:11:06;9.80;;;8.80;;
870;SDS011;422;51.280;7.236;2023-03-01T12:20:02;10.87;;;9.77;;
870;SDS011;422;51.280;7.236;2023-03-01T12:22:44;10.87;;;9.33;;
870;SDS011;422;51.280;7.236;2023-03-01T12:25:25;10.67;;;9.57;;
870;SDS011;422;51.280;7.236;2023-03-01T12:28:04;11.50;;;9.63;;
870;SDS011;422;51.280;7.236;2023-03-01T12:31:00;10.53;;;9.30;;
870;SDS011;422;51.280;7.236;2023-03-01T12:33:43;9.77;;;8.77;;
870;SDS011;422;51.280;7.236;2023-03-01T12:36:22;10.50;;;9.17;;
870;SDS011;422;51.280;7.236;2023-03-01T12:38:59;9.90;;;8.90;;
870;SDS011;422;51.280;7.236;2023-03-01T12:41:47;10.60;;;9.20;;
870;SDS011;422;51.280;7.236;2023-03-01T12:44:29;10.43;;;9.43;;
870;SDS011;422;51.280;7.236;2023-03-01T12:47:10;15.43;;;9.60;;
870;SDS011;422;51.280;7.236;2023-03-01T12:49:48;11.17;;;10.00;;
870;SDS011;422;51.280;7.236;2023-03-01T12:52:21;9.73;;;8.83;;
870;SDS011;422;51.280;7.236;2023-03-01T12:54:55;10.90;;;9.67;;
870;SDS011;422;51.280;7.236;2023-03-01T12:57:26;10.53;;;9.00;;
870;SDS011;422;51.280;7.236;2023-03-01T13:00:06;10.97;;;9.83;;
870;SDS011;422;51.280;7.236;2023-03-01T13:02:49;13.57;;;9.60;;
870;SDS011;422;51.280;7.236;2023-03-01T13:05:28;12.20;;;8.80;;
870;SDS011;422;51.280;7.236;2023-03-01T13:08:07;15.00;;;9.30;;
870;SDS011;422;51.280;7.236;2023-03-01T13:10:40;10.80;;;8.37;;
870;SDS011;422;51.280;7.236;2023-03-01T13:13:13;9.83;;;8.80;;
870;SDS011;422;51.280;7.236;2023-03-01T13:15:46;12.40;;;9.90;;
870;SDS011;422;51.280;7.236;2023-03-01T13:18:29;10.97;;;9.83;;
870;SDS011;422;51.280;7.236;2023-03-01T13:20:59;11.67;;;8.97;;
870;SDS011;422;51.280;7.236;2023-03-01T13:23:29;11.60;;;10.20;;
870;SDS011;422;51.280;7.236;2023-03-01T13:26:10;10.60;;;9.60;;
870;SDS011;422;51.280;7.236;2023-03-01T13:28:48;10.30;;;9.07;;
870;SDS011;422;51.280;7.236;2023-03-01T13:37:23;9.43;;;8.50;;
870;SDS011;422;51.280;7.236;2023-03-01T13:39:54;10.37;;;8.63;;
870;SDS011;422;51.280;7.236;2023-03-01T13:45:15;12.27;;;10.37;;
870;SDS011;422;51.280;7.236;2023-03-01T13:47:52;11.60;;;9.37;;
870;SDS011;422;51.280;7.236;2023-03-01T13:50:24;11.00;;;9.27;;
870;SDS011;422;51.280;7.236;2023-03-01T13:52:54;11.70;;;10.47;;
870;SDS011;422;51.280;7.236;2023-03-01T13:55:25;10.17;;;9.17;;
870;SDS011;422;51.280;7.236;2023-03-01T13:58:04;12.57;;;8.23;;
870;SDS011;422;51.280;7.236;2023-03-01T14:00:41;11.30;;;9.20;;
870;SDS011;422;51.280;7.236;2023-03-01T14:03:13;9.87;;;8.97;;
870;SDS011;422;51.280;7.236;2023-03-01T14:05:43;11.70;;;9.23;;
870;SDS011;422;51.280;7.236;2023-03-01T14:08:23;12.07;;;9.30;;
870;SDS011;422;51.280;7.236;2023-03-01T14:10:57;15.30;;;8.37;;
870;SDS011;422;51.280;7.236;2023-03-01T14:13:43;10.20;;;9.10;;
870;SDS011;422;51.280;7.236;2023-03-01T14:16:24;10.33;;;9.10;;
870;SDS011;422;51.280;7.236;2023-03-01T14:19:04;11.20;;;8.73;;
870;SDS011;422;51.280;7.236;2023-03-01T14:21:43;9.20;;;8.30;;
870;SDS011;422;51.280;7.236;2023-03-01T14:24:15;9.13;;;8.23;;
870;SDS011;422;51.280;7.236;2023-03-01T14:26:44;10.30;;;8.00;;
870;SDS011;422;51.280;7.236;2023-03-01T14:29:25;9.33;;;8.47;;
870;SDS011;422;51.280;7.236;2023-03-01T14:31:54;9.87;;;7.93;;
870;SDS011;422;51.280;7.236;2023-03-01T14:34:23;9.27;;;8.27;;
870;SDS011;422;51.280;7.236;2023-03-01T14:36:51;8.53;;;7.57;;
870;SDS011;422;51.280;7.236;2023-03-01T14:39:19;8.80;;;8.00;;
870;SDS011;422;51.280;7.236;2023-03-01T14:41:51;12.30;;;8.03;;
870;SDS011;422;51.280;7.236;2023-03-01T14:44:19;8.57;;;7.53;;
870;SDS011;422;51.280;7.236;2023-03-01T14:46:51;9.33;;;7.20;;
870;SDS011;422;51.280;7.236;2023-03-01T14:49:21;9.67;;;7.30;;
870;SDS011;422;51.280;7.236;2023-03-01T14:51:52;10.30;;;7.23;;
870;SDS011;422;51.280;7.236;2023-03-01T14:54:23;8.13;;;7.33;;
870;SDS011;422;51.280;7.236;2023-03-01T14:56:53;10.10;;;7.30;;
870;SDS011;422;51.280;7.236;2023-03-01T14:59:24;14.40;;;8.93;;
870;SDS011;422;51.280;7.236;2023-03-01T15:01:51;11.10;;;8.80;;
870;SDS011;422;51.280;7.236;2023-03-01T15:04:21;10.13;;;8.47;;
870;SDS011;422;51.280;7.236;2023-03-01T15:06:52;10.00;;;7.50;;
870;SDS011;422;51.280;7.236;2023-03-01T15:09:20;9.17;;;7.60;;
870;SDS011;422;51.280;7.236;2023-03-01T15:11:48;10.47;;;9.17;;
870;SDS011;422;51.280;7.236;2023-03-01T15:14:25;9.40;;;7.90;;
870;SDS011;422;51.280;7.236;2023-03-01T15:17:13;12.00;;;9.10;;
870;SDS011;422;51.280;7.236;2023-03-01T15:19:48;9.40;;;7.80;;
870;SDS011;422;51.280;7.236;2023-03-01T15:22:16;9.23;;;7.10;;
870;SDS011;422;51.280;7.236;2023-03-01T15:24:46;14.50;;;8.03;;
870;SDS011;422;51.280;7.236;2023-03-01T15:27:14;10.10;;;8.07;;
870;SDS011;422;51.280;7.236;2023-03-01T15:29:48;9.10;;;8.13;;
870;SDS011;422;51.280;7.236;2023-03-01T15:32:24;11.10;;;8.37;;
870;SDS011;422;51.280;7.236;2023-03-01T15:34:54;8.80;;;7.33;;
870;SDS011;422;51.280;7.236;2023-03-01T15:37:39;9.23;;;7.30;;
870;SDS011;422;51.280;7.236;2023-03-01T15:40:19;8.90;;;7.57;;
870;SDS011;422;51.280;7.236;2023-03-01T15:42:50;13.10;;;7.37;;
870;SDS011;422;51.280;7.236;2023-03-01T15:45:22;13.93;;;9.30;;
870;SDS011;422;51.280;7.236;2023-03-01T15:47:53;9.23;;;7.20;;
870;SDS011;422;51.280;7.236;2023-03-01T15:50:26;9.33;;;8.00;;
870;SDS011;422;51.280;7.236;2023-03-01T15:52:54;9.70;;;7.40;;
870;SDS011;422;51.280;7.236;2023-03-01T15:55:23;10.80;;;7.97;;
870;SDS011;422;51.280;7.236;2023-03-01T15:57:57;11.50;;;7.60;;
870;SDS011;422;51.280;7.236;2023-03-01T16:00:27;9.70;;;7.40;;
870;SDS011;422;51.280;7.236;2023-03-01T16:02:54;9.50;;;7.17;;
870;SDS011;422;51.280;7.236;2023-03-01T16:05:23;9.17;;;7.90;;